Terminal Aerodrome Forecast
Issued by NWS Nashville, TN

Home | Current Version | Previous Version | Text Only | Print | Product List | Glossary On
Versions: 1 2 3 4 5 6 7 8 9 10 11 12 13 14 15 16
401
FTUS44 KOHX 111130
TAFCSV
TAF
KCSV 111130Z 1112/1212 18007KT P6SM SCT050 WS020/19035KT
     FM111600 18010G20KT P6SM BKN060
     FM120400 19012G18KT P6SM VCSH OVC025
     FM120700 21012KT 3SM -RA BR OVC007=

USA.gov is the U.S. government's official web portal to all federal, state and local government web resources and services.